Mount Pleasant, Texas
Current Conditions -  °F | °C
As of 7:35 AM on Friday 28 Nov 2014 (Local Time) from KOSA Reporting Station
Clear Clear  
Wind Chill: 35°   Ceiling: Unl
Heat Index: 35°   Visibility: 5mi
Dew Point: 32°   Wind: 3mph
Humidity: 89%   Direction: 140°SE
Pressure: 30.33"   Gusts: NA
Location:  33.16°N, 94.97°W
Report Text: KOSA 281335Z AUTO 14003KT 5SM CLR 02/00 A3033 RMK AO1 T00160000
Loading
Personal Weather Stations






























Interactive Weather Map New forecast layout! Learn more

10-Day Weather Forecast

Advertisements
Track Severe Weather on mobile